Location Sebastian, FL, US

ob KFLSEBAS1 180935Z AUTO 33005G13KT CLR 03/M03 A3030 RMK SLPNO 

2018.01.18 0935 UTC
Wind from the NW (327 degrees) at 6.0 MPH (5 KT) gusting to 15.0 MPH (13 KT)
Visibility    Mile(s)
Sky Conditions  clear
Temperature 37.20 F (3 C)
Dew Point 26.53 F (-3 C)
Relative Humidity 65%
Pressure   30.30 in. Hg (1026 hPa)
Rain  0.00 in.
Daily Rain  in.

Station Name  Memory Makers, Inc.
Longitude, Latitude  -80.48, 27.8
Elevation 23
Station URL www.kflsebas1.com
Software Type VWS V15.00